sensor_id;sensor_type;location;lat;lon;timestamp;P1;durP1;ratioP1;P2;durP2;ratioP2
28086;SDS011;15392;48.912;8.380;2023-05-13T00:00:34;0.20;;;0.20;;
28086;SDS011;15392;48.912;8.380;2023-05-13T00:03:01;0.20;;;0.20;;
28086;SDS011;15392;48.912;8.380;2023-05-13T00:05:27;0.20;;;0.20;;
28086;SDS011;15392;48.912;8.380;2023-05-13T00:07:53;0.20;;;0.20;;
28086;SDS011;15392;48.912;8.380;2023-05-13T00:10:19;0.22;;;0.22;;
28086;SDS011;15392;48.912;8.380;2023-05-13T00:12:45;0.22;;;0.22;;
28086;SDS011;15392;48.912;8.380;2023-05-13T00:15:11;0.32;;;0.32;;
28086;SDS011;15392;48.912;8.380;2023-05-13T00:17:38;0.43;;;0.32;;
28086;SDS011;15392;48.912;8.380;2023-05-13T00:20:04;0.28;;;0.28;;
28086;SDS011;15392;48.912;8.380;2023-05-13T00:22:30;0.30;;;0.30;;
28086;SDS011;15392;48.912;8.380;2023-05-13T00:24:56;0.20;;;0.20;;
28086;SDS011;15392;48.912;8.380;2023-05-13T00:27:22;0.35;;;0.35;;
28086;SDS011;15392;48.912;8.380;2023-05-13T00:29:48;0.40;;;0.40;;
28086;SDS011;15392;48.912;8.380;2023-05-13T00:32:14;0.20;;;0.20;;
28086;SDS011;15392;48.912;8.380;2023-05-13T00:34:40;0.20;;;0.20;;
28086;SDS011;15392;48.912;8.380;2023-05-13T00:37:05;0.30;;;0.30;;
28086;SDS011;15392;48.912;8.380;2023-05-13T00:39:34;0.20;;;0.20;;
28086;SDS011;15392;48.912;8.380;2023-05-13T00:41:59;0.20;;;0.20;;
28086;SDS011;15392;48.912;8.380;2023-05-13T00:44:27;0.30;;;0.30;;
28086;SDS011;15392;48.912;8.380;2023-05-13T00:46:53;0.20;;;0.20;;
28086;SDS011;15392;48.912;8.380;2023-05-13T00:49:19;0.30;;;0.30;;
28086;SDS011;15392;48.912;8.380;2023-05-13T00:51:44;0.20;;;0.20;;
28086;SDS011;15392;48.912;8.380;2023-05-13T00:54:10;0.40;;;0.30;;
28086;SDS011;15392;48.912;8.380;2023-05-13T00:56:37;0.20;;;0.20;;
28086;SDS011;15392;48.912;8.380;2023-05-13T00:59:03;0.30;;;0.30;;
28086;SDS011;15392;48.912;8.380;2023-05-13T01:01:29;0.40;;;0.40;;
28086;SDS011;15392;48.912;8.380;2023-05-13T01:04:16;0.40;;;0.40;;
28086;SDS011;15392;48.912;8.380;2023-05-13T01:07:21;0.40;;;0.40;;
28086;SDS011;15392;48.912;8.380;2023-05-13T01:15:24;0.40;;;0.40;;
28086;SDS011;15392;48.912;8.380;2023-05-13T01:20:40;0.30;;;0.30;;
28086;SDS011;15392;48.912;8.380;2023-05-13T01:23:07;0.28;;;0.28;;
28086;SDS011;15392;48.912;8.380;2023-05-13T01:25:36;0.30;;;0.30;;
28086;SDS011;15392;48.912;8.380;2023-05-13T01:28:04;0.45;;;0.40;;
28086;SDS011;15392;48.912;8.380;2023-05-13T01:30:32;0.60;;;0.40;;
28086;SDS011;15392;48.912;8.380;2023-05-13T01:32:59;0.40;;;0.40;;
28086;SDS011;15392;48.912;8.380;2023-05-13T01:35:27;0.35;;;0.35;;
28086;SDS011;15392;48.912;8.380;2023-05-13T01:37:55;0.73;;;0.40;;
28086;SDS011;15392;48.912;8.380;2023-05-13T01:40:21;0.20;;;0.20;;
28086;SDS011;15392;48.912;8.380;2023-05-13T01:42:47;0.30;;;0.30;;
28086;SDS011;15392;48.912;8.380;2023-05-13T01:45:13;0.40;;;0.40;;
28086;SDS011;15392;48.912;8.380;2023-05-13T01:47:39;0.30;;;0.30;;
28086;SDS011;15392;48.912;8.380;2023-05-13T01:50:05;0.57;;;0.57;;
28086;SDS011;15392;48.912;8.380;2023-05-13T01:52:32;0.30;;;0.30;;
28086;SDS011;15392;48.912;8.380;2023-05-13T01:54:58;0.30;;;0.30;;
28086;SDS011;15392;48.912;8.380;2023-05-13T01:57:24;0.40;;;0.40;;
28086;SDS011;15392;48.912;8.380;2023-05-13T01:59:50;0.43;;;0.43;;
28086;SDS011;15392;48.912;8.380;2023-05-13T02:02:17;0.40;;;0.40;;
28086;SDS011;15392;48.912;8.380;2023-05-13T02:04:43;0.40;;;0.40;;
28086;SDS011;15392;48.912;8.380;2023-05-13T02:07:08;0.40;;;0.40;;
28086;SDS011;15392;48.912;8.380;2023-05-13T02:09:34;0.40;;;0.40;;
28086;SDS011;15392;48.912;8.380;2023-05-13T02:12:00;0.55;;;0.50;;
28086;SDS011;15392;48.912;8.380;2023-05-13T02:14:26;0.43;;;0.43;;
28086;SDS011;15392;48.912;8.380;2023-05-13T02:16:51;0.32;;;0.32;;
28086;SDS011;15392;48.912;8.380;2023-05-13T02:19:17;0.30;;;0.30;;
28086;SDS011;15392;48.912;8.380;2023-05-13T02:21:44;0.50;;;0.50;;
28086;SDS011;15392;48.912;8.380;2023-05-13T02:24:10;0.32;;;0.32;;
28086;SDS011;15392;48.912;8.380;2023-05-13T02:26:35;0.40;;;0.40;;
28086;SDS011;15392;48.912;8.380;2023-05-13T02:29:02;0.45;;;0.45;;
28086;SDS011;15392;48.912;8.380;2023-05-13T02:31:27;0.35;;;0.35;;
28086;SDS011;15392;48.912;8.380;2023-05-13T02:33:53;0.35;;;0.35;;
28086;SDS011;15392;48.912;8.380;2023-05-13T02:36:19;0.30;;;0.30;;
28086;SDS011;15392;48.912;8.380;2023-05-13T02:38:45;0.35;;;0.35;;
28086;SDS011;15392;48.912;8.380;2023-05-13T02:41:10;1.17;;;0.43;;
28086;SDS011;15392;48.912;8.380;2023-05-13T02:43:36;0.40;;;0.40;;
28086;SDS011;15392;48.912;8.380;2023-05-13T02:46:02;0.38;;;0.38;;
28086;SDS011;15392;48.912;8.380;2023-05-13T02:48:28;0.35;;;0.35;;
28086;SDS011;15392;48.912;8.380;2023-05-13T02:50:54;0.30;;;0.30;;
28086;SDS011;15392;48.912;8.380;2023-05-13T02:53:19;0.47;;;0.47;;
28086;SDS011;15392;48.912;8.380;2023-05-13T02:55:45;0.40;;;0.40;;
28086;SDS011;15392;48.912;8.380;2023-05-13T02:58:11;0.50;;;0.50;;
28086;SDS011;15392;48.912;8.380;2023-05-13T03:00:37;0.40;;;0.40;;
28086;SDS011;15392;48.912;8.380;2023-05-13T03:03:03;0.52;;;0.40;;
28086;SDS011;15392;48.912;8.380;2023-05-13T03:05:28;0.45;;;0.45;;
28086;SDS011;15392;48.912;8.380;2023-05-13T03:07:54;0.40;;;0.40;;
28086;SDS011;15392;48.912;8.380;2023-05-13T03:10:21;0.35;;;0.35;;
28086;SDS011;15392;48.912;8.380;2023-05-13T03:12:47;0.35;;;0.35;;
28086;SDS011;15392;48.912;8.380;2023-05-13T03:15:14;0.50;;;0.50;;
28086;SDS011;15392;48.912;8.380;2023-05-13T03:17:41;0.35;;;0.35;;
28086;SDS011;15392;48.912;8.380;2023-05-13T03:20:08;0.45;;;0.45;;
28086;SDS011;15392;48.912;8.380;2023-05-13T03:22:35;0.47;;;0.47;;
28086;SDS011;15392;48.912;8.380;2023-05-13T03:25:03;0.43;;;0.43;;
28086;SDS011;15392;48.912;8.380;2023-05-13T03:27:32;0.40;;;0.40;;
28086;SDS011;15392;48.912;8.380;2023-05-13T03:29:58;0.38;;;0.38;;
28086;SDS011;15392;48.912;8.380;2023-05-13T03:32:23;0.50;;;0.50;;
28086;SDS011;15392;48.912;8.380;2023-05-13T03:34:54;0.30;;;0.30;;
28086;SDS011;15392;48.912;8.380;2023-05-13T03:37:22;0.30;;;0.30;;
28086;SDS011;15392;48.912;8.380;2023-05-13T03:39:49;0.45;;;0.45;;
28086;SDS011;15392;48.912;8.380;2023-05-13T03:42:15;0.40;;;0.40;;
28086;SDS011;15392;48.912;8.380;2023-05-13T03:44:41;0.40;;;0.40;;
28086;SDS011;15392;48.912;8.380;2023-05-13T03:47:06;0.40;;;0.40;;
28086;SDS011;15392;48.912;8.380;2023-05-13T03:49:32;0.40;;;0.40;;
28086;SDS011;15392;48.912;8.380;2023-05-13T03:51:58;0.43;;;0.43;;
28086;SDS011;15392;48.912;8.380;2023-05-13T03:54:24;0.38;;;0.38;;
28086;SDS011;15392;48.912;8.380;2023-05-13T03:56:49;0.45;;;0.45;;
28086;SDS011;15392;48.912;8.380;2023-05-13T03:59:15;0.50;;;0.50;;
28086;SDS011;15392;48.912;8.380;2023-05-13T04:01:41;0.40;;;0.40;;
28086;SDS011;15392;48.912;8.380;2023-05-13T04:04:07;0.50;;;0.50;;
28086;SDS011;15392;48.912;8.380;2023-05-13T04:06:32;0.50;;;0.50;;
28086;SDS011;15392;48.912;8.380;2023-05-13T04:08:58;1.25;;;0.60;;
28086;SDS011;15392;48.912;8.380;2023-05-13T04:11:25;1.02;;;0.60;;
28086;SDS011;15392;48.912;8.380;2023-05-13T04:13:50;0.70;;;0.70;;
28086;SDS011;15392;48.912;8.380;2023-05-13T04:16:16;0.60;;;0.60;;
28086;SDS011;15392;48.912;8.380;2023-05-13T04:18:42;0.60;;;0.60;;
28086;SDS011;15392;48.912;8.380;2023-05-13T04:21:08;0.50;;;0.50;;
28086;SDS011;15392;48.912;8.380;2023-05-13T04:23:34;0.60;;;0.60;;
28086;SDS011;15392;48.912;8.380;2023-05-13T04:26:00;0.50;;;0.50;;
28086;SDS011;15392;48.912;8.380;2023-05-13T04:28:26;0.50;;;0.50;;
28086;SDS011;15392;48.912;8.380;2023-05-13T04:30:52;0.50;;;0.50;;
28086;SDS011;15392;48.912;8.380;2023-05-13T04:33:18;0.40;;;0.40;;
28086;SDS011;15392;48.912;8.380;2023-05-13T04:35:44;0.70;;;0.70;;
28086;SDS011;15392;48.912;8.380;2023-05-13T04:38:10;0.57;;;0.57;;
28086;SDS011;15392;48.912;8.380;2023-05-13T04:40:36;0.70;;;0.70;;
28086;SDS011;15392;48.912;8.380;2023-05-13T04:43:01;0.50;;;0.50;;
28086;SDS011;15392;48.912;8.380;2023-05-13T04:45:27;0.60;;;0.60;;
28086;SDS011;15392;48.912;8.380;2023-05-13T04:47:54;0.50;;;0.50;;
28086;SDS011;15392;48.912;8.380;2023-05-13T04:50:20;0.52;;;0.52;;
28086;SDS011;15392;48.912;8.380;2023-05-13T04:52:45;0.57;;;0.57;;
28086;SDS011;15392;48.912;8.380;2023-05-13T04:55:11;0.60;;;0.60;;
28086;SDS011;15392;48.912;8.380;2023-05-13T04:57:37;0.40;;;0.40;;
28086;SDS011;15392;48.912;8.380;2023-05-13T05:00:03;0.60;;;0.60;;
28086;SDS011;15392;48.912;8.380;2023-05-13T05:02:32;0.57;;;0.57;;
28086;SDS011;15392;48.912;8.380;2023-05-13T05:04:59;0.57;;;0.57;;
28086;SDS011;15392;48.912;8.380;2023-05-13T05:07:24;0.60;;;0.60;;
28086;SDS011;15392;48.912;8.380;2023-05-13T05:09:50;0.50;;;0.50;;
28086;SDS011;15392;48.912;8.380;2023-05-13T05:12:16;0.63;;;0.63;;
28086;SDS011;15392;48.912;8.380;2023-05-13T05:14:42;0.40;;;0.40;;
28086;SDS011;15392;48.912;8.380;2023-05-13T05:17:08;0.47;;;0.47;;
28086;SDS011;15392;48.912;8.380;2023-05-13T05:19:34;0.40;;;0.40;;
28086;SDS011;15392;48.912;8.380;2023-05-13T05:21:59;0.50;;;0.50;;
28086;SDS011;15392;48.912;8.380;2023-05-13T05:24:25;0.40;;;0.40;;
28086;SDS011;15392;48.912;8.380;2023-05-13T05:26:51;0.43;;;0.43;;
28086;SDS011;15392;48.912;8.380;2023-05-13T05:29:16;0.60;;;0.60;;
28086;SDS011;15392;48.912;8.380;2023-05-13T05:31:42;0.60;;;0.50;;
28086;SDS011;15392;48.912;8.380;2023-05-13T05:34:08;0.60;;;0.60;;
28086;SDS011;15392;48.912;8.380;2023-05-13T05:36:34;0.65;;;0.65;;
28086;SDS011;15392;48.912;8.380;2023-05-13T05:38:59;0.60;;;0.60;;
28086;SDS011;15392;48.912;8.380;2023-05-13T05:41:25;0.50;;;0.50;;
28086;SDS011;15392;48.912;8.380;2023-05-13T05:43:51;0.60;;;0.60;;
28086;SDS011;15392;48.912;8.380;2023-05-13T05:46:17;0.80;;;0.77;;
28086;SDS011;15392;48.912;8.380;2023-05-13T05:48:42;0.57;;;0.57;;
28086;SDS011;15392;48.912;8.380;2023-05-13T05:51:08;0.60;;;0.60;;
28086;SDS011;15392;48.912;8.380;2023-05-13T05:53:34;0.75;;;0.75;;
28086;SDS011;15392;48.912;8.380;2023-05-13T05:58:31;0.43;;;0.43;;
28086;SDS011;15392;48.912;8.380;2023-05-13T06:00:56;0.43;;;0.43;;
28086;SDS011;15392;48.912;8.380;2023-05-13T06:03:24;0.50;;;0.50;;
28086;SDS011;15392;48.912;8.380;2023-05-13T06:05:51;0.30;;;0.30;;
28086;SDS011;15392;48.912;8.380;2023-05-13T06:08:18;0.30;;;0.30;;
28086;SDS011;15392;48.912;8.380;2023-05-13T06:10:43;0.40;;;0.40;;
28086;SDS011;15392;48.912;8.380;2023-05-13T06:13:09;0.50;;;0.50;;
28086;SDS011;15392;48.912;8.380;2023-05-13T06:15:36;0.40;;;0.40;;
28086;SDS011;15392;48.912;8.380;2023-05-13T06:18:02;0.45;;;0.45;;
28086;SDS011;15392;48.912;8.380;2023-05-13T06:20:30;0.68;;;0.68;;
28086;SDS011;15392;48.912;8.380;2023-05-13T06:22:59;0.52;;;0.52;;
28086;SDS011;15392;48.912;8.380;2023-05-13T06:25:25;0.30;;;0.30;;
28086;SDS011;15392;48.912;8.380;2023-05-13T06:27:51;0.57;;;0.57;;
28086;SDS011;15392;48.912;8.380;2023-05-13T06:30:16;0.47;;;0.47;;
28086;SDS011;15392;48.912;8.380;2023-05-13T06:32:42;0.40;;;0.40;;
28086;SDS011;15392;48.912;8.380;2023-05-13T06:35:08;0.50;;;0.50;;
28086;SDS011;15392;48.912;8.380;2023-05-13T06:37:34;0.38;;;0.38;;
28086;SDS011;15392;48.912;8.380;2023-05-13T06:39:59;0.55;;;0.40;;
28086;SDS011;15392;48.912;8.380;2023-05-13T06:42:25;0.40;;;0.40;;
28086;SDS011;15392;48.912;8.380;2023-05-13T06:44:51;0.40;;;0.40;;
28086;SDS011;15392;48.912;8.380;2023-05-13T06:47:17;0.50;;;0.50;;
28086;SDS011;15392;48.912;8.380;2023-05-13T06:49:43;0.40;;;0.40;;
28086;SDS011;15392;48.912;8.380;2023-05-13T06:52:09;0.40;;;0.40;;
28086;SDS011;15392;48.912;8.380;2023-05-13T06:54:35;0.45;;;0.45;;
28086;SDS011;15392;48.912;8.380;2023-05-13T06:57:01;0.40;;;0.40;;
28086;SDS011;15392;48.912;8.380;2023-05-13T06:59:29;0.30;;;0.30;;
28086;SDS011;15392;48.912;8.380;2023-05-13T07:01:56;0.45;;;0.45;;
28086;SDS011;15392;48.912;8.380;2023-05-13T07:04:21;0.50;;;0.50;;
28086;SDS011;15392;48.912;8.380;2023-05-13T07:06:47;0.40;;;0.40;;
28086;SDS011;15392;48.912;8.380;2023-05-13T07:09:14;0.65;;;0.38;;
28086;SDS011;15392;48.912;8.380;2023-05-13T07:11:40;0.52;;;0.52;;
28086;SDS011;15392;48.912;8.380;2023-05-13T07:14:06;0.40;;;0.40;;
28086;SDS011;15392;48.912;8.380;2023-05-13T07:16:32;0.50;;;0.50;;
28086;SDS011;15392;48.912;8.380;2023-05-13T07:18:58;0.40;;;0.40;;
28086;SDS011;15392;48.912;8.380;2023-05-13T07:21:23;0.43;;;0.43;;
28086;SDS011;15392;48.912;8.380;2023-05-13T07:23:49;0.32;;;0.32;;
28086;SDS011;15392;48.912;8.380;2023-05-13T07:26:15;0.40;;;0.40;;
28086;SDS011;15392;48.912;8.380;2023-05-13T07:28:41;0.40;;;0.40;;
28086;SDS011;15392;48.912;8.380;2023-05-13T07:31:07;0.30;;;0.30;;
28086;SDS011;15392;48.912;8.380;2023-05-13T07:33:34;0.40;;;0.40;;
28086;SDS011;15392;48.912;8.380;2023-05-13T07:36:00;0.60;;;0.60;;
28086;SDS011;15392;48.912;8.380;2023-05-13T07:38:26;0.60;;;0.60;;
28086;SDS011;15392;48.912;8.380;2023-05-13T07:40:51;0.47;;;0.47;;
28086;SDS011;15392;48.912;8.380;2023-05-13T07:43:17;0.47;;;0.47;;
28086;SDS011;15392;48.912;8.380;2023-05-13T07:45:50;0.50;;;0.50;;
28086;SDS011;15392;48.912;8.380;2023-05-13T07:48:17;0.47;;;0.32;;
28086;SDS011;15392;48.912;8.380;2023-05-13T07:50:43;0.38;;;0.38;;
28086;SDS011;15392;48.912;8.380;2023-05-13T07:53:10;0.45;;;0.45;;
28086;SDS011;15392;48.912;8.380;2023-05-13T07:55:36;0.43;;;0.43;;
28086;SDS011;15392;48.912;8.380;2023-05-13T07:58:02;0.40;;;0.40;;
28086;SDS011;15392;48.912;8.380;2023-05-13T08:00:28;0.30;;;0.30;;
28086;SDS011;15392;48.912;8.380;2023-05-13T08:02:54;0.40;;;0.40;;
28086;SDS011;15392;48.912;8.380;2023-05-13T08:05:20;0.50;;;0.50;;
28086;SDS011;15392;48.912;8.380;2023-05-13T08:07:46;0.40;;;0.40;;
28086;SDS011;15392;48.912;8.380;2023-05-13T08:10:12;0.40;;;0.40;;
28086;SDS011;15392;48.912;8.380;2023-05-13T08:12:37;0.30;;;0.30;;
28086;SDS011;15392;48.912;8.380;2023-05-13T08:15:04;0.60;;;0.60;;
28086;SDS011;15392;48.912;8.380;2023-05-13T08:17:31;0.30;;;0.30;;
28086;SDS011;15392;48.912;8.380;2023-05-13T08:19:59;0.30;;;0.30;;
28086;SDS011;15392;48.912;8.380;2023-05-13T08:22:26;0.52;;;0.52;;
28086;SDS011;15392;48.912;8.380;2023-05-13T08:24:52;0.55;;;0.47;;
28086;SDS011;15392;48.912;8.380;2023-05-13T08:27:18;0.40;;;0.40;;
28086;SDS011;15392;48.912;8.380;2023-05-13T08:29:44;0.43;;;0.43;;
28086;SDS011;15392;48.912;8.380;2023-05-13T08:32:09;0.50;;;0.50;;
28086;SDS011;15392;48.912;8.380;2023-05-13T08:34:36;0.52;;;0.52;;
28086;SDS011;15392;48.912;8.380;2023-05-13T08:37:02;0.60;;;0.60;;
28086;SDS011;15392;48.912;8.380;2023-05-13T08:39:28;0.57;;;0.57;;
28086;SDS011;15392;48.912;8.380;2023-05-13T08:41:54;0.60;;;0.60;;
28086;SDS011;15392;48.912;8.380;2023-05-13T08:44:22;0.40;;;0.40;;
28086;SDS011;15392;48.912;8.380;2023-05-13T08:46:57;0.40;;;0.40;;
28086;SDS011;15392;48.912;8.380;2023-05-13T08:49:31;0.68;;;0.40;;
28086;SDS011;15392;48.912;8.380;2023-05-13T08:51:59;0.50;;;0.50;;
28086;SDS011;15392;48.912;8.380;2023-05-13T08:54:25;0.50;;;0.40;;
28086;SDS011;15392;48.912;8.380;2023-05-13T08:56:52;0.47;;;0.47;;
28086;SDS011;15392;48.912;8.380;2023-05-13T08:59:18;1.00;;;0.40;;
28086;SDS011;15392;48.912;8.380;2023-05-13T09:01:43;0.50;;;0.50;;
28086;SDS011;15392;48.912;8.380;2023-05-13T09:04:09;0.40;;;0.40;;
28086;SDS011;15392;48.912;8.380;2023-05-13T09:06:35;0.40;;;0.40;;
28086;SDS011;15392;48.912;8.380;2023-05-13T09:09:02;0.47;;;0.47;;
28086;SDS011;15392;48.912;8.380;2023-05-13T09:11:29;0.40;;;0.40;;
28086;SDS011;15392;48.912;8.380;2023-05-13T09:13:55;1.73;;;1.73;;
28086;SDS011;15392;48.912;8.380;2023-05-13T09:16:28;2.90;;;2.80;;
28086;SDS011;15392;48.912;8.380;2023-05-13T09:18:55;15.40;;;14.13;;
28086;SDS011;15392;48.912;8.380;2023-05-13T09:21:25;21.02;;;19.33;;
28086;SDS011;15392;48.912;8.380;2023-05-13T09:23:54;11.85;;;11.05;;
28086;SDS011;15392;48.912;8.380;2023-05-13T09:26:37;6.22;;;5.93;;
28086;SDS011;15392;48.912;8.380;2023-05-13T09:29:25;4.22;;;4.03;;
28086;SDS011;15392;48.912;8.380;2023-05-13T09:31:55;5.07;;;3.35;;
28086;SDS011;15392;48.912;8.380;2023-05-13T09:34:33;5.07;;;3.10;;
28086;SDS011;15392;48.912;8.380;2023-05-13T09:37:06;1.48;;;1.48;;
28086;SDS011;15392;48.912;8.380;2023-05-13T09:39:33;0.90;;;0.90;;
28086;SDS011;15392;48.912;8.380;2023-05-13T09:42:05;0.90;;;0.90;;
28086;SDS011;15392;48.912;8.380;2023-05-13T09:44:41;0.60;;;0.60;;
28086;SDS011;15392;48.912;8.380;2023-05-13T09:47:15;0.40;;;0.40;;
28086;SDS011;15392;48.912;8.380;2023-05-13T09:49:42;0.60;;;0.60;;
28086;SDS011;15392;48.912;8.380;2023-05-13T09:52:10;0.50;;;0.50;;
28086;SDS011;15392;48.912;8.380;2023-05-13T09:54:36;0.40;;;0.40;;
28086;SDS011;15392;48.912;8.380;2023-05-13T09:57:03;0.40;;;0.40;;
28086;SDS011;15392;48.912;8.380;2023-05-13T09:59:33;0.30;;;0.30;;
28086;SDS011;15392;48.912;8.380;2023-05-13T10:01:59;0.50;;;0.50;;
28086;SDS011;15392;48.912;8.380;2023-05-13T10:04:29;0.30;;;0.30;;
28086;SDS011;15392;48.912;8.380;2023-05-13T10:06:56;0.30;;;0.30;;
28086;SDS011;15392;48.912;8.380;2023-05-13T10:09:24;0.50;;;0.50;;
28086;SDS011;15392;48.912;8.380;2023-05-13T10:11:51;0.40;;;0.40;;
28086;SDS011;15392;48.912;8.380;2023-05-13T10:14:18;0.30;;;0.30;;
28086;SDS011;15392;48.912;8.380;2023-05-13T10:16:44;0.30;;;0.30;;
28086;SDS011;15392;48.912;8.380;2023-05-13T10:19:12;0.30;;;0.30;;
28086;SDS011;15392;48.912;8.380;2023-05-13T10:21:38;0.20;;;0.20;;
28086;SDS011;15392;48.912;8.380;2023-05-13T10:24:04;0.90;;;0.38;;
28086;SDS011;15392;48.912;8.380;2023-05-13T10:26:31;0.20;;;0.20;;
28086;SDS011;15392;48.912;8.380;2023-05-13T10:28:58;0.45;;;0.40;;
28086;SDS011;15392;48.912;8.380;2023-05-13T10:31:26;0.40;;;0.40;;
28086;SDS011;15392;48.912;8.380;2023-05-13T10:33:53;0.30;;;0.30;;
28086;SDS011;15392;48.912;8.380;2023-05-13T10:36:30;0.55;;;0.40;;
28086;SDS011;15392;48.912;8.380;2023-05-13T10:42:33;0.40;;;0.40;;
28086;SDS011;15392;48.912;8.380;2023-05-13T10:45:13;0.30;;;0.30;;
28086;SDS011;15392;48.912;8.380;2023-05-13T10:47:41;0.30;;;0.30;;
28086;SDS011;15392;48.912;8.380;2023-05-13T10:50:25;0.20;;;0.20;;
28086;SDS011;15392;48.912;8.380;2023-05-13T10:52:54;0.20;;;0.20;;
28086;SDS011;15392;48.912;8.380;2023-05-13T10:55:22;0.30;;;0.30;;
28086;SDS011;15392;48.912;8.380;2023-05-13T11:00:37;0.30;;;0.30;;
28086;SDS011;15392;48.912;8.380;2023-05-13T11:05:45;0.20;;;0.20;;
28086;SDS011;15392;48.912;8.380;2023-05-13T11:08:36;0.17;;;0.17;;
28086;SDS011;15392;48.912;8.380;2023-05-13T11:13:50;0.25;;;0.25;;
28086;SDS011;15392;48.912;8.380;2023-05-13T11:16:17;0.28;;;0.28;;
28086;SDS011;15392;48.912;8.380;2023-05-13T11:18:45;0.30;;;0.30;;
28086;SDS011;15392;48.912;8.380;2023-05-13T11:21:11;0.20;;;0.20;;
28086;SDS011;15392;48.912;8.380;2023-05-13T11:23:59;0.28;;;0.28;;
28086;SDS011;15392;48.912;8.380;2023-05-13T11:26:48;0.30;;;0.30;;
28086;SDS011;15392;48.912;8.380;2023-05-13T11:29:29;0.20;;;0.20;;
28086;SDS011;15392;48.912;8.380;2023-05-13T11:32:01;0.10;;;0.10;;
28086;SDS011;15392;48.912;8.380;2023-05-13T11:34:29;0.50;;;0.20;;
28086;SDS011;15392;48.912;8.380;2023-05-13T11:39:28;0.30;;;0.30;;
28086;SDS011;15392;48.912;8.380;2023-05-13T11:41:56;0.30;;;0.30;;
28086;SDS011;15392;48.912;8.380;2023-05-13T11:44:22;0.32;;;0.32;;
28086;SDS011;15392;48.912;8.380;2023-05-13T11:46:53;0.30;;;0.30;;
28086;SDS011;15392;48.912;8.380;2023-05-13T11:52:06;0.20;;;0.20;;
28086;SDS011;15392;48.912;8.380;2023-05-13T11:54:46;0.20;;;0.20;;
28086;SDS011;15392;48.912;8.380;2023-05-13T12:00:12;0.22;;;0.20;;
28086;SDS011;15392;48.912;8.380;2023-05-13T12:02:38;0.30;;;0.30;;
28086;SDS011;15392;48.912;8.380;2023-05-13T12:05:08;0.57;;;0.40;;
28086;SDS011;15392;48.912;8.380;2023-05-13T12:07:36;0.70;;;0.38;;
28086;SDS011;15392;48.912;8.380;2023-05-13T12:10:04;0.30;;;0.30;;
28086;SDS011;15392;48.912;8.380;2023-05-13T12:12:31;0.50;;;0.50;;
28086;SDS011;15392;48.912;8.380;2023-05-13T12:15:01;0.40;;;0.40;;
28086;SDS011;15392;48.912;8.380;2023-05-13T12:17:29;0.30;;;0.30;;
28086;SDS011;15392;48.912;8.380;2023-05-13T12:20:15;0.32;;;0.32;;
28086;SDS011;15392;48.912;8.380;2023-05-13T12:28:11;0.30;;;0.30;;
28086;SDS011;15392;48.912;8.380;2023-05-13T12:30:43;0.38;;;0.38;;
28086;SDS011;15392;48.912;8.380;2023-05-13T12:35:49;0.40;;;0.40;;
28086;SDS011;15392;48.912;8.380;2023-05-13T12:38:21;0.50;;;0.50;;
28086;SDS011;15392;48.912;8.380;2023-05-13T12:40:49;0.30;;;0.30;;
28086;SDS011;15392;48.912;8.380;2023-05-13T12:43:16;0.50;;;0.50;;
28086;SDS011;15392;48.912;8.380;2023-05-13T12:45:44;0.30;;;0.30;;
28086;SDS011;15392;48.912;8.380;2023-05-13T12:48:12;0.98;;;0.32;;
28086;SDS011;15392;48.912;8.380;2023-05-13T12:50:38;0.40;;;0.40;;
28086;SDS011;15392;48.912;8.380;2023-05-13T12:53:04;0.40;;;0.40;;
28086;SDS011;15392;48.912;8.380;2023-05-13T12:55:30;0.40;;;0.40;;
28086;SDS011;15392;48.912;8.380;2023-05-13T12:58:00;0.35;;;0.35;;
28086;SDS011;15392;48.912;8.380;2023-05-13T13:00:28;0.50;;;0.50;;
28086;SDS011;15392;48.912;8.380;2023-05-13T13:02:55;0.40;;;0.40;;
28086;SDS011;15392;48.912;8.380;2023-05-13T13:05:22;0.60;;;0.60;;
28086;SDS011;15392;48.912;8.380;2023-05-13T13:07:49;0.40;;;0.40;;
28086;SDS011;15392;48.912;8.380;2023-05-13T13:10:15;0.40;;;0.40;;
28086;SDS011;15392;48.912;8.380;2023-05-13T13:12:41;0.50;;;0.50;;
28086;SDS011;15392;48.912;8.380;2023-05-13T13:15:08;0.55;;;0.55;;
28086;SDS011;15392;48.912;8.380;2023-05-13T13:17:35;0.60;;;0.60;;
28086;SDS011;15392;48.912;8.380;2023-05-13T13:20:02;0.57;;;0.57;;
28086;SDS011;15392;48.912;8.380;2023-05-13T13:22:29;0.40;;;0.40;;
28086;SDS011;15392;48.912;8.380;2023-05-13T13:24:56;0.70;;;0.70;;
28086;SDS011;15392;48.912;8.380;2023-05-13T13:27:21;0.50;;;0.50;;
28086;SDS011;15392;48.912;8.380;2023-05-13T13:29:47;0.50;;;0.50;;
28086;SDS011;15392;48.912;8.380;2023-05-13T13:32:13;0.73;;;0.73;;
28086;SDS011;15392;48.912;8.380;2023-05-13T13:34:39;0.50;;;0.50;;
28086;SDS011;15392;48.912;8.380;2023-05-13T13:37:05;0.50;;;0.50;;
28086;SDS011;15392;48.912;8.380;2023-05-13T13:39:30;0.50;;;0.50;;
28086;SDS011;15392;48.912;8.380;2023-05-13T13:41:57;0.30;;;0.30;;
28086;SDS011;15392;48.912;8.380;2023-05-13T13:44:23;0.50;;;0.50;;
28086;SDS011;15392;48.912;8.380;2023-05-13T13:46:49;0.30;;;0.30;;
28086;SDS011;15392;48.912;8.380;2023-05-13T13:49:14;0.40;;;0.40;;
28086;SDS011;15392;48.912;8.380;2023-05-13T13:51:42;1.10;;;0.35;;
28086;SDS011;15392;48.912;8.380;2023-05-13T13:54:08;0.40;;;0.40;;
28086;SDS011;15392;48.912;8.380;2023-05-13T13:56:36;0.40;;;0.40;;
28086;SDS011;15392;48.912;8.380;2023-05-13T13:59:03;0.40;;;0.40;;
28086;SDS011;15392;48.912;8.380;2023-05-13T14:01:29;0.22;;;0.22;;
28086;SDS011;15392;48.912;8.380;2023-05-13T14:04:08;0.20;;;0.20;;
28086;SDS011;15392;48.912;8.380;2023-05-13T14:06:36;0.30;;;0.30;;
28086;SDS011;15392;48.912;8.380;2023-05-13T14:09:02;0.30;;;0.30;;
28086;SDS011;15392;48.912;8.380;2023-05-13T14:11:29;0.30;;;0.30;;
28086;SDS011;15392;48.912;8.380;2023-05-13T14:13:54;0.22;;;0.22;;
28086;SDS011;15392;48.912;8.380;2023-05-13T14:16:20;0.30;;;0.30;;
28086;SDS011;15392;48.912;8.380;2023-05-13T14:18:46;0.30;;;0.30;;
28086;SDS011;15392;48.912;8.380;2023-05-13T14:21:12;0.20;;;0.20;;
28086;SDS011;15392;48.912;8.380;2023-05-13T14:23:37;0.20;;;0.20;;
28086;SDS011;15392;48.912;8.380;2023-05-13T14:26:05;0.40;;;0.40;;
28086;SDS011;15392;48.912;8.380;2023-05-13T14:28:33;0.30;;;0.30;;
28086;SDS011;15392;48.912;8.380;2023-05-13T14:30:59;0.32;;;0.32;;
28086;SDS011;15392;48.912;8.380;2023-05-13T14:33:25;0.40;;;0.40;;
28086;SDS011;15392;48.912;8.380;2023-05-13T14:35:50;0.38;;;0.38;;
28086;SDS011;15392;48.912;8.380;2023-05-13T14:38:17;0.50;;;0.50;;
28086;SDS011;15392;48.912;8.380;2023-05-13T14:40:43;0.40;;;0.40;;
28086;SDS011;15392;48.912;8.380;2023-05-13T14:43:09;0.50;;;0.50;;
28086;SDS011;15392;48.912;8.380;2023-05-13T14:45:35;0.30;;;0.30;;
28086;SDS011;15392;48.912;8.380;2023-05-13T14:48:01;0.60;;;0.60;;
28086;SDS011;15392;48.912;8.380;2023-05-13T14:50:26;0.40;;;0.40;;
28086;SDS011;15392;48.912;8.380;2023-05-13T14:52:52;0.50;;;0.50;;
28086;SDS011;15392;48.912;8.380;2023-05-13T14:55:18;0.40;;;0.40;;
28086;SDS011;15392;48.912;8.380;2023-05-13T14:57:44;0.40;;;0.40;;
28086;SDS011;15392;48.912;8.380;2023-05-13T15:00:10;0.40;;;0.40;;
28086;SDS011;15392;48.912;8.380;2023-05-13T15:02:36;0.40;;;0.40;;
28086;SDS011;15392;48.912;8.380;2023-05-13T15:05:02;0.30;;;0.30;;
28086;SDS011;15392;48.912;8.380;2023-05-13T15:07:29;0.30;;;0.30;;
28086;SDS011;15392;48.912;8.380;2023-05-13T15:09:55;0.38;;;0.38;;
28086;SDS011;15392;48.912;8.380;2023-05-13T15:12:20;0.40;;;0.40;;
28086;SDS011;15392;48.912;8.380;2023-05-13T15:14:50;0.30;;;0.30;;
28086;SDS011;15392;48.912;8.380;2023-05-13T15:17:17;0.40;;;0.40;;
28086;SDS011;15392;48.912;8.380;2023-05-13T15:19:43;0.30;;;0.30;;
28086;SDS011;15392;48.912;8.380;2023-05-13T15:22:10;0.50;;;0.40;;
28086;SDS011;15392;48.912;8.380;2023-05-13T15:24:36;0.35;;;0.35;;
28086;SDS011;15392;48.912;8.380;2023-05-13T15:27:03;0.20;;;0.20;;